Time;durP1;ratioP1;P1;durP2;ratioP2;P2;SDS_P1;SDS_P2;PMS_P1;PMS_P2;Temp;Humidity;BMP_temperature;BMP_pressure;BME280_temperature;BME280_humidity;BME280_pressure;Samples;Min_cycle;Max_cycle;Signal;HPM_P1;HPM_P2
2022/07/18 00:00:09;;;;;;;7.67;5.17;;;26.50;44.80;;;;;;5073806;28;20468;-78
2022/07/18 00:02:38;;;;;;;7.60;4.33;;;26.30;44.50;;;;;;5073713;28;20458;-78
2022/07/18 00:05:06;;;;;;;4.90;4.47;;;26.20;44.60;;;;;;5072829;28;20449;-78
2022/07/18 00:07:34;;;;;;;6.83;4.50;;;26.20;44.80;;;;;;5073678;28;20470;-77
2022/07/18 00:10:02;;;;;;;5.93;4.10;;;26.20;44.80;;;;;;5073950;28;20923;-78
2022/07/18 00:12:30;;;;;;;6.20;4.40;;;26.10;44.60;;;;;;5073876;28;20417;-78
2022/07/18 00:14:58;;;;;;;5.97;4.33;;;26.10;44.70;;;;;;5073048;28;20457;-77
2022/07/18 00:17:26;;;;;;;7.30;4.73;;;26.10;44.10;;;;;;5073907;28;20423;-78
2022/07/18 00:19:55;;;;;;;4.33;3.93;;;26.00;44.30;;;;;;5074309;28;20977;-78
2022/07/18 00:22:23;;;;;;;5.10;4.67;;;25.90;44.20;;;;;;5068408;28;20536;-77
2022/07/18 00:24:51;;;;;;;9.50;3.90;;;26.00;44.30;;;;;;5073390;28;20538;-77
2022/07/18 00:27:19;;;;;;;5.13;3.73;;;26.10;44.10;;;;;;5073188;28;20453;-77
2022/07/18 00:29:46;;;;;;;4.77;3.40;;;26.10;44.10;;;;;;5073750;28;20445;-78
2022/07/18 00:32:14;;;;;;;5.23;3.97;;;26.20;43.70;;;;;;5073146;28;20426;-77
2022/07/18 00:34:42;;;;;;;9.33;4.57;;;26.10;43.90;;;;;;5072764;28;20448;-77
2022/07/18 00:37:11;;;;;;;5.47;4.10;;;26.20;43.60;;;;;;5072661;28;20446;-77
2022/07/18 00:39:39;;;;;;;7.47;4.00;;;26.10;43.60;;;;;;5061584;28;20520;-77
2022/07/18 00:42:07;;;;;;;7.03;4.40;;;26.00;44.40;;;;;;5052786;28;20447;-78
2022/07/18 00:44:36;;;;;;;8.77;3.67;;;26.00;43.60;;;;;;5052432;28;20529;-77
2022/07/18 00:47:04;;;;;;;5.20;3.57;;;25.80;43.50;;;;;;5052790;28;20511;-78
2022/07/18 00:49:32;;;;;;;3.90;3.50;;;25.90;43.80;;;;;;5052819;28;20457;-77
2022/07/18 00:52:00;;;;;;;6.17;3.73;;;25.90;43.80;;;;;;5052873;28;20504;-78
2022/07/18 00:54:31;;;;;;;3.77;3.47;;;25.90;43.80;;;;;;5051905;28;20541;-77
2022/07/18 00:56:59;;;;;;;4.17;3.67;;;25.90;43.50;;;;;;5052103;28;20478;-78
2022/07/18 01:01:42;;;;;;;5.83;4.10;;;25.90;43.40;;;;;;5052505;28;20447;-79
2022/07/18 01:02:14;;;;;;;8.23;4.17;;;25.90;43.50;;;;;;5052302;28;20456;-79
2022/07/18 01:04:42;;;;;;;4.30;3.90;;;25.90;43.80;;;;;;5052098;28;20437;-79
2022/07/18 01:07:10;;;;;;;5.90;3.90;;;25.90;43.70;;;;;;5051552;28;20801;-77
2022/07/18 01:09:39;;;;;;;5.57;4.00;;;25.90;43.40;;;;;;5051774;28;20526;-78
2022/07/18 01:12:07;;;;;;;4.67;4.10;;;25.90;43.60;;;;;;5052137;28;20456;-78
2022/07/18 01:14:35;;;;;;;4.20;3.80;;;25.90;43.40;;;;;;5052213;28;20467;-78
2022/07/18 01:17:04;;;;;;;4.33;3.20;;;25.90;43.60;;;;;;5051979;28;20504;-78
2022/07/18 01:19:32;;;;;;;4.20;3.80;;;25.80;43.70;;;;;;5052535;28;20525;-78
2022/07/18 01:22:01;;;;;;;4.23;3.80;;;25.80;43.60;;;;;;5051957;28;20806;-79
2022/07/18 01:24:29;;;;;;;4.73;3.70;;;25.80;43.50;;;;;;5051570;28;20556;-78
2022/07/18 01:26:57;;;;;;;5.07;3.70;;;25.80;43.80;;;;;;5052070;28;20425;-78
2022/07/18 01:29:25;;;;;;;5.53;3.80;;;25.90;43.40;;;;;;5053158;28;20971;-78
2022/07/18 01:31:53;;;;;;;4.67;3.90;;;25.90;43.50;;;;;;5051922;28;20415;-78
2022/07/18 01:34:21;;;;;;;3.97;3.43;;;25.90;43.50;;;;;;5051728;28;20518;-79
2022/07/18 01:36:49;;;;;;;4.97;3.90;;;25.90;43.60;;;;;;5050941;28;20504;-79
2022/07/18 01:39:19;;;;;;;4.47;3.53;;;25.80;43.90;;;;;;5043674;28;20528;-79
2022/07/18 01:41:47;;;;;;;3.47;3.17;;;25.90;43.60;;;;;;5031428;28;20518;-79
2022/07/18 01:44:15;;;;;;;6.00;4.03;;;25.80;43.60;;;;;;5032212;28;20470;-79
2022/07/18 01:46:43;;;;;;;3.70;3.40;;;25.90;43.60;;;;;;5031354;28;20451;-78
2022/07/18 01:49:11;;;;;;;6.93;3.77;;;25.80;43.30;;;;;;5031944;28;20454;-79
2022/07/18 01:51:39;;;;;;;3.57;3.27;;;25.70;43.70;;;;;;5031290;28;20418;-79
2022/07/18 01:54:07;;;;;;;3.57;3.27;;;25.70;43.90;;;;;;5031308;28;20450;-79
2022/07/18 01:56:36;;;;;;;4.97;3.20;;;25.80;43.50;;;;;;5031370;28;20475;-79
2022/07/18 01:59:04;;;;;;;4.60;3.53;;;25.70;43.70;;;;;;5031881;28;20443;-79
2022/07/18 02:01:32;;;;;;;5.03;3.57;;;25.60;43.90;;;;;;5031911;28;20526;-79
2022/07/18 02:04:00;;;;;;;4.77;3.17;;;25.70;43.90;;;;;;5031983;28;20442;-78
2022/07/18 02:06:28;;;;;;;4.23;3.27;;;25.70;44.60;;;;;;5031767;28;20481;-78
2022/07/18 02:08:56;;;;;;;3.43;3.13;;;25.60;44.30;;;;;;5031104;28;20518;-78
2022/07/18 02:11:24;;;;;;;5.20;3.40;;;25.70;43.90;;;;;;5031310;28;20459;-78
2022/07/18 02:13:54;;;;;;;5.63;3.43;;;25.70;44.60;;;;;;5031373;28;20521;-78
2022/07/18 02:16:22;;;;;;;3.60;3.30;;;25.70;44.00;;;;;;5030411;28;20428;-78
2022/07/18 02:18:50;;;;;;;4.00;3.60;;;25.70;43.90;;;;;;5030923;28;20487;-78
2022/07/18 02:21:18;;;;;;;5.93;3.60;;;25.70;43.80;;;;;;5031671;28;20516;-78
2022/07/18 02:23:45;;;;;;;4.43;3.20;;;25.70;43.60;;;;;;5031487;28;20468;-78
2022/07/18 02:26:13;;;;;;;3.40;3.10;;;25.70;44.20;;;;;;5030497;28;20447;-78
2022/07/18 02:28:41;;;;;;;4.27;3.87;;;25.70;43.80;;;;;;5030843;28;20443;-78
2022/07/18 02:31:10;;;;;;;5.03;3.30;;;25.60;43.80;;;;;;5031090;28;20816;-78
2022/07/18 02:33:38;;;;;;;5.83;3.70;;;25.70;44.10;;;;;;5030857;28;20438;-78
2022/07/18 02:36:07;;;;;;;6.43;3.63;;;25.70;43.90;;;;;;5030061;28;20790;-79
2022/07/18 02:38:35;;;;;;;7.00;3.10;;;25.60;43.80;;;;;;5032858;28;20469;-78
2022/07/18 02:41:03;;;;;;;4.30;3.30;;;25.70;43.80;;;;;;5050425;28;20413;-78
2022/07/18 02:43:30;;;;;;;6.97;3.47;;;25.70;43.70;;;;;;5050003;28;20955;-78
2022/07/18 02:45:58;;;;;;;6.90;3.40;;;25.50;44.10;;;;;;5049999;28;20419;-78
2022/07/18 02:48:27;;;;;;;4.30;3.70;;;25.50;44.30;;;;;;5050804;28;20451;-78
2022/07/18 02:50:55;;;;;;;4.93;3.90;;;25.50;44.20;;;;;;5050875;28;20417;-78
2022/07/18 02:53:23;;;;;;;3.87;3.30;;;25.40;44.20;;;;;;5050741;28;20435;-78
2022/07/18 02:55:51;;;;;;;4.20;3.30;;;25.40;44.80;;;;;;5050327;28;20484;-78
2022/07/18 02:58:19;;;;;;;3.60;3.30;;;25.40;44.20;;;;;;5050934;28;20439;-79
2022/07/18 03:00:47;;;;;;;4.83;4.20;;;25.40;44.60;;;;;;5051246;28;20472;-79
2022/07/18 03:03:15;;;;;;;4.20;3.80;;;25.20;44.40;;;;;;5050719;28;20440;-79
2022/07/18 03:05:44;;;;;;;4.17;3.80;;;25.20;44.70;;;;;;5050517;28;20420;-78
2022/07/18 03:08:11;;;;;;;6.03;3.60;;;25.20;44.90;;;;;;5050970;28;20465;-79
2022/07/18 03:10:39;;;;;;;4.43;4.00;;;25.20;44.40;;;;;;5051004;28;20499;-79
2022/07/18 03:13:07;;;;;;;5.57;3.83;;;25.10;44.60;;;;;;5051179;28;20466;-79
2022/07/18 03:15:35;;;;;;;5.50;3.80;;;24.90;45.00;;;;;;5051002;28;20474;-78
2022/07/18 03:18:03;;;;;;;4.43;3.53;;;24.90;45.00;;;;;;5051079;28;20434;-79
2022/07/18 03:20:30;;;;;;;4.93;3.70;;;24.80;44.90;;;;;;5051512;28;20529;-78
2022/07/18 03:23:00;;;;;;;11.63;3.40;;;24.70;45.20;;;;;;5051093;28;20469;-78
2022/07/18 03:25:27;;;;;;;4.70;3.60;;;24.50;45.30;;;;;;5050507;28;20413;-78
2022/07/18 03:27:55;;;;;;;4.03;3.60;;;24.50;45.80;;;;;;5052688;28;20415;-81
2022/07/18 03:30:23;;;;;;;6.37;4.03;;;24.30;46.00;;;;;;5054848;28;20445;-78
2022/07/18 03:32:51;;;;;;;5.00;3.77;;;24.30;45.70;;;;;;5054467;28;20457;-78
2022/07/18 03:35:18;;;;;;;4.27;3.87;;;24.30;46.00;;;;;;5053480;28;20477;-78
2022/07/18 03:37:46;;;;;;;6.53;3.97;;;24.30;46.50;;;;;;5054678;28;20463;-78
2022/07/18 03:40:15;;;;;;;5.90;3.73;;;24.30;45.70;;;;;;5048582;28;20441;-78
2022/07/18 03:42:43;;;;;;;4.50;3.40;;;24.20;46.20;;;;;;5054019;28;20413;-78
2022/07/18 03:45:11;;;;;;;5.27;3.70;;;24.30;46.40;;;;;;5048289;28;20405;-78
2022/07/18 03:47:39;;;;;;;7.97;3.67;;;24.60;45.90;;;;;;5034062;28;20486;-78
2022/07/18 03:50:08;;;;;;;5.73;3.53;;;24.70;45.50;;;;;;5034547;28;20482;-78
2022/07/18 03:52:35;;;;;;;4.67;3.50;;;24.60;45.40;;;;;;5035277;28;20456;-79
2022/07/18 03:55:04;;;;;;;4.33;3.70;;;24.40;45.60;;;;;;5034570;28;20475;-78
2022/07/18 03:57:33;;;;;;;4.93;3.70;;;24.30;46.20;;;;;;5041652;28;20549;-79
2022/07/18 04:00:00;;;;;;;4.10;3.43;;;24.30;46.10;;;;;;5053953;28;20438;-79
2022/07/18 04:02:28;;;;;;;4.90;3.40;;;24.20;46.10;;;;;;5053312;28;20481;-78
2022/07/18 04:04:56;;;;;;;4.67;3.57;;;24.20;46.20;;;;;;5053353;28;20438;-79
2022/07/18 04:07:24;;;;;;;15.77;4.30;;;24.20;45.90;;;;;;5053458;28;20453;-79
2022/07/18 04:09:52;;;;;;;7.30;3.80;;;24.20;46.00;;;;;;5053316;28;20466;-78
2022/07/18 04:12:21;;;;;;;4.43;3.33;;;24.20;46.40;;;;;;5053792;28;20445;-78
2022/07/18 04:14:50;;;;;;;5.90;3.60;;;24.20;46.20;;;;;;5053344;28;20465;-78
2022/07/18 04:17:18;;;;;;;7.33;3.53;;;24.30;46.00;;;;;;5053292;28;20451;-79
2022/07/18 04:19:45;;;;;;;3.40;3.13;;;24.20;46.10;;;;;;5053664;28;20445;-79
2022/07/18 04:22:13;;;;;;;6.73;3.40;;;24.30;46.20;;;;;;5052997;28;20438;-78
2022/07/18 04:24:41;;;;;;;5.03;3.83;;;24.20;46.00;;;;;;5053499;28;20439;-78
2022/07/18 04:27:10;;;;;;;6.20;3.63;;;24.10;45.70;;;;;;5052781;28;20473;-78
2022/07/18 04:29:37;;;;;;;4.13;3.23;;;24.10;46.40;;;;;;5053916;28;20438;-78
2022/07/18 04:32:07;;;;;;;6.60;3.73;;;23.80;46.30;;;;;;5053644;28;20427;-79
2022/07/18 04:34:35;;;;;;;3.77;3.40;;;23.90;46.60;;;;;;5042120;28;20459;-78
2022/07/18 04:37:02;;;;;;;8.53;3.90;;;23.80;46.10;;;;;;5032795;28;20475;-79
2022/07/18 04:39:30;;;;;;;8.23;3.50;;;23.80;46.40;;;;;;5042849;28;20445;-78
2022/07/18 04:41:58;;;;;;;3.07;2.77;;;23.70;46.60;;;;;;5052980;28;20529;-78
2022/07/18 04:44:26;;;;;;;4.13;3.07;;;23.60;46.60;;;;;;5053263;28;20561;-78
2022/07/18 04:46:53;;;;;;;6.00;3.27;;;23.70;46.40;;;;;;5052227;28;20429;-79
2022/07/18 04:49:24;;;;;;;6.90;4.07;;;23.70;46.80;;;;;;5052847;28;20438;-78
2022/07/18 04:51:52;;;;;;;9.77;3.30;;;23.50;46.80;;;;;;5052845;28;20451;-78
2022/07/18 04:54:20;;;;;;;5.60;3.20;;;23.40;47.40;;;;;;5052418;28;20488;-78
2022/07/18 04:56:48;;;;;;;3.10;2.90;;;23.40;47.20;;;;;;5052211;28;20470;-78
2022/07/18 04:59:16;;;;;;;3.50;3.00;;;23.60;47.10;;;;;;5057187;28;20453;-78
2022/07/18 05:01:44;;;;;;;5.17;3.53;;;23.70;46.80;;;;;;5058288;28;20515;-78
2022/07/18 05:04:12;;;;;;;5.07;3.43;;;23.80;46.70;;;;;;5056505;28;20517;-78
2022/07/18 05:06:41;;;;;;;7.40;3.10;;;23.90;46.50;;;;;;5052500;28;20443;-79
2022/07/18 05:09:09;;;;;;;5.60;3.07;;;24.00;45.80;;;;;;5052877;28;20471;-78
2022/07/18 05:11:37;;;;;;;6.07;3.70;;;24.00;46.60;;;;;;5052888;28;20443;-78
2022/07/18 05:14:05;;;;;;;3.57;2.73;;;23.90;46.20;;;;;;5052141;28;20539;-79
2022/07/18 05:16:33;;;;;;;4.50;3.40;;;23.90;46.50;;;;;;5051899;28;20521;-79
2022/07/18 05:19:02;;;;;;;3.07;2.80;;;23.90;46.40;;;;;;5049699;28;20497;-79
2022/07/18 05:21:30;;;;;;;4.20;3.00;;;23.90;46.60;;;;;;5040885;28;20439;-79
2022/07/18 05:24:00;;;;;;;4.30;3.00;;;24.20;46.00;;;;;;5031999;28;20541;-78
2022/07/18 05:26:27;;;;;;;4.80;2.80;;;24.10;45.80;;;;;;5031872;28;20414;-79
2022/07/18 05:29:02;;;;;;;5.03;2.63;;;24.20;45.80;;;;;;5031828;28;20453;-78
2022/07/18 05:31:30;;;;;;;3.13;2.63;;;24.10;45.70;;;;;;5032256;28;20429;-78
2022/07/18 05:33:58;;;;;;;6.17;2.80;;;24.00;46.20;;;;;;5031454;28;20509;-78
2022/07/18 05:36:26;;;;;;;3.03;2.83;;;24.10;46.10;;;;;;5031230;28;20475;-78
2022/07/18 05:38:54;;;;;;;3.90;3.00;;;24.20;45.80;;;;;;5031813;28;20464;-78
2022/07/18 05:41:23;;;;;;;3.33;2.50;;;24.20;45.80;;;;;;5031277;28;20453;-78
2022/07/18 05:43:51;;;;;;;5.17;3.20;;;24.10;45.70;;;;;;5031389;28;20551;-79
2022/07/18 05:46:19;;;;;;;6.13;2.90;;;24.10;45.80;;;;;;5030843;28;20454;-78
2022/07/18 05:48:47;;;;;;;5.10;3.30;;;24.10;45.70;;;;;;5031445;28;20418;-78
2022/07/18 05:51:15;;;;;;;3.20;2.60;;;24.00;45.90;;;;;;5031307;28;20426;-78
2022/07/18 05:53:43;;;;;;;2.50;2.30;;;23.90;46.10;;;;;;5030962;28;20446;-78
2022/07/18 05:56:11;;;;;;;5.03;3.30;;;23.90;45.80;;;;;;5038161;28;20978;-78
2022/07/18 05:58:40;;;;;;;7.10;3.23;;;23.70;45.80;;;;;;5030654;28;20443;-78
2022/07/18 06:01:16;;;;;;;5.40;3.10;;;23.90;45.90;;;;;;5030900;28;20474;-79
2022/07/18 06:03:44;;;;;;;4.70;3.07;;;23.80;45.70;;;;;;5030628;28;20465;-78
2022/07/18 06:06:12;;;;;;;7.30;3.17;;;24.00;46.10;;;;;;5030149;28;20493;-78
2022/07/18 06:08:40;;;;;;;7.27;3.07;;;24.20;45.40;;;;;;5031109;28;20499;-78
2022/07/18 06:11:08;;;;;;;6.20;2.60;;;24.40;45.60;;;;;;5030964;28;20406;-78
2022/07/18 06:13:37;;;;;;;5.87;2.60;;;24.60;45.20;;;;;;5030486;28;20442;-79
2022/07/18 06:16:06;;;;;;;4.20;2.47;;;24.60;44.60;;;;;;5030378;28;20471;-78
2022/07/18 06:18:34;;;;;;;3.70;2.63;;;24.60;44.60;;;;;;5030452;28;20530;-78
2022/07/18 06:21:02;;;;;;;6.87;3.10;;;24.50;44.50;;;;;;5029852;28;20450;-78
2022/07/18 06:23:30;;;;;;;3.40;2.93;;;24.50;44.60;;;;;;5030259;28;20474;-78
2022/07/18 06:25:59;;;;;;;9.77;2.93;;;24.70;44.20;;;;;;5030504;28;20429;-78
2022/07/18 06:28:28;;;;;;;4.00;2.80;;;24.70;44.90;;;;;;5031514;28;20447;-78
2022/07/18 06:30:56;;;;;;;5.40;2.87;;;24.80;44.30;;;;;;5031133;28;20538;-78
2022/07/18 06:33:25;;;;;;;7.83;3.00;;;24.80;44.30;;;;;;5031751;28;20442;-78
2022/07/18 06:35:53;;;;;;;5.33;2.40;;;24.80;44.20;;;;;;5043194;28;20519;-78
2022/07/18 06:38:21;;;;;;;3.13;2.37;;;24.90;43.70;;;;;;5037035;28;20482;-78
2022/07/18 06:40:48;;;;;;;5.73;3.00;;;25.00;43.60;;;;;;5049901;28;20425;-78
2022/07/18 06:43:19;;;;;;;4.80;3.43;;;25.00;43.80;;;;;;5050480;28;20466;-79
2022/07/18 06:45:47;;;;;;;7.00;2.40;;;25.20;43.60;;;;;;5049308;28;20497;-78
2022/07/18 06:48:15;;;;;;;15.23;2.90;;;25.30;43.60;;;;;;5050445;28;20417;-78
2022/07/18 06:50:44;;;;;;;6.03;3.03;;;25.30;43.40;;;;;;5050724;28;20457;-78
2022/07/18 06:53:11;;;;;;;3.10;2.50;;;25.40;43.20;;;;;;5050835;28;20462;-78
2022/07/18 06:55:39;;;;;;;4.63;2.40;;;25.40;43.20;;;;;;5050652;28;20890;-79
2022/07/18 06:58:09;;;;;;;3.97;2.50;;;25.40;42.50;;;;;;5050544;28;20544;-78
2022/07/18 07:00:37;;;;;;;3.43;2.60;;;25.50;42.60;;;;;;5050471;28;20423;-78
2022/07/18 07:03:05;;;;;;;2.90;2.70;;;25.60;42.50;;;;;;5053348;28;20463;-78
2022/07/18 07:05:33;;;;;;;8.50;2.60;;;25.50;42.40;;;;;;5054388;28;20446;-78
2022/07/18 07:08:02;;;;;;;4.67;2.30;;;25.50;42.60;;;;;;5054111;28;20438;-78
2022/07/18 07:10:30;;;;;;;3.50;2.27;;;25.50;42.80;;;;;;5054399;28;20441;-78
2022/07/18 07:12:59;;;;;;;9.23;2.43;;;25.50;43.00;;;;;;5054042;28;20505;-78
2022/07/18 07:15:26;;;;;;;5.90;2.97;;;25.50;43.00;;;;;;5054135;28;20444;-78
2022/07/18 07:17:54;;;;;;;7.03;2.60;;;25.50;42.40;;;;;;5055052;28;20437;-78
2022/07/18 07:20:22;;;;;;;7.70;2.43;;;25.50;43.00;;;;;;5055088;28;20529;-78
2022/07/18 07:22:51;;;;;;;9.10;3.23;;;25.80;42.60;;;;;;5052220;28;20491;-78
2022/07/18 07:25:21;;;;;;;7.43;2.70;;;25.90;42.60;;;;;;5050181;28;20427;-77
2022/07/18 07:27:49;;;;;;;4.30;2.40;;;26.10;42.30;;;;;;5048076;28;20448;-77
2022/07/18 07:30:17;;;;;;;4.20;2.40;;;26.30;41.90;;;;;;5053126;28;20510;-78
2022/07/18 07:32:45;;;;;;;6.30;2.97;;;26.40;41.60;;;;;;5033609;28;20430;-77
2022/07/18 07:35:14;;;;;;;3.20;2.47;;;26.50;41.30;;;;;;5048081;28;20522;-77
2022/07/18 07:37:42;;;;;;;11.47;2.57;;;26.60;41.00;;;;;;5048623;28;20504;-78
2022/07/18 07:40:10;;;;;;;3.93;2.60;;;26.70;40.70;;;;;;5046929;28;20518;-78
2022/07/18 07:42:39;;;;;;;3.47;2.40;;;26.70;40.60;;;;;;5045870;28;20452;-78
2022/07/18 07:45:08;;;;;;;5.03;2.30;;;26.80;40.20;;;;;;5052623;28;20432;-77
2022/07/18 07:47:35;;;;;;;3.80;2.80;;;26.90;40.10;;;;;;5043482;28;20401;-78
2022/07/18 07:50:04;;;;;;;2.90;2.60;;;27.00;39.90;;;;;;5044637;28;20449;-78
2022/07/18 07:52:32;;;;;;;7.57;2.47;;;27.10;39.80;;;;;;5052380;28;20451;-78
2022/07/18 07:55:00;;;;;;;3.43;2.40;;;27.10;39.50;;;;;;5049998;28;20545;-77
2022/07/18 07:57:28;;;;;;;2.23;2.03;;;27.20;39.20;;;;;;5046849;28;20471;-77
2022/07/18 08:00:05;;;;;;;2.80;2.13;;;27.30;39.20;;;;;;5032049;28;20448;-77
2022/07/18 08:02:33;;;;;;;7.03;2.20;;;27.40;39.00;;;;;;5033339;28;20450;-77
2022/07/18 08:05:01;;;;;;;5.70;2.40;;;27.40;38.80;;;;;;5051368;28;20449;-76
2022/07/18 08:07:28;;;;;;;2.93;2.47;;;27.50;38.60;;;;;;5037987;28;20464;-77
2022/07/18 08:09:56;;;;;;;3.33;1.93;;;27.50;38.30;;;;;;5031712;28;20435;-77
2022/07/18 08:12:24;;;;;;;7.40;2.40;;;27.60;38.30;;;;;;5041050;28;20416;-77
2022/07/18 08:14:52;;;;;;;4.50;2.37;;;27.70;38.20;;;;;;5051419;28;20455;-77
2022/07/18 08:17:21;;;;;;;4.93;2.20;;;27.80;38.00;;;;;;5048178;28;20445;-78
2022/07/18 08:19:49;;;;;;;7.23;2.40;;;27.80;37.80;;;;;;5042574;28;20409;-77
2022/07/18 08:22:17;;;;;;;4.27;2.10;;;27.90;37.80;;;;;;5050616;28;20460;-77
2022/07/18 08:24:45;;;;;;;4.73;2.20;;;28.00;37.60;;;;;;5051035;28;20534;-77
2022/07/18 08:27:13;;;;;;;3.03;1.90;;;28.10;37.30;;;;;;5051017;28;20469;-77
2022/07/18 08:29:41;;;;;;;6.17;2.07;;;28.10;37.00;;;;;;5050918;28;20421;-77
2022/07/18 08:32:30;;;;;;;3.23;1.90;;;28.20;36.80;;;;;;5048040;28;20431;-77
2022/07/18 08:34:58;;;;;;;6.20;2.27;;;28.20;36.40;;;;;;5049398;28;20417;-76
2022/07/18 08:37:26;;;;;;;3.90;2.20;;;28.30;36.30;;;;;;5051083;28;20473;-77
2022/07/18 08:39:53;;;;;;;5.17;2.00;;;28.40;36.20;;;;;;5051302;28;20787;-77
2022/07/18 08:42:23;;;;;;;3.40;2.40;;;28.40;35.90;;;;;;5043410;28;20509;-77
2022/07/18 08:44:50;;;;;;;6.30;2.17;;;28.50;35.90;;;;;;5039909;28;20429;-76
2022/07/18 08:47:18;;;;;;;6.27;2.00;;;28.60;35.80;;;;;;5038687;28;20439;-77
2022/07/18 08:49:47;;;;;;;1.93;1.73;;;28.70;35.70;;;;;;5043413;28;20444;-77
2022/07/18 08:52:15;;;;;;;5.10;1.67;;;28.80;35.20;;;;;;5048882;28;20449;-78
2022/07/18 08:55:03;;;;;;;3.53;2.00;;;28.90;34.90;;;;;;5048042;28;20443;-77
2022/07/18 08:57:31;;;;;;;4.20;2.27;;;29.00;34.40;;;;;;5052352;28;20482;-78
2022/07/18 08:59:58;;;;;;;3.30;2.13;;;29.10;34.30;;;;;;5053269;28;20476;-78
2022/07/18 09:02:27;;;;;;;3.13;2.20;;;29.10;34.00;;;;;;5033971;28;20468;-77
2022/07/18 09:04:56;;;;;;;3.10;2.33;;;29.30;33.90;;;;;;5043104;28;20446;-77
2022/07/18 09:07:43;;;;;;;11.43;2.20;;;29.40;33.60;;;;;;5050924;28;20423;-77
2022/07/18 09:10:11;;;;;;;6.43;2.30;;;29.50;33.30;;;;;;5050606;28;20417;-77
2022/07/18 09:12:39;;;;;;;4.57;2.60;;;29.50;33.00;;;;;;5049978;28;20413;-77
2022/07/18 09:15:10;;;;;;;4.33;2.30;;;29.60;32.80;;;;;;5050237;28;20443;-77
2022/07/18 09:17:37;;;;;;;3.60;2.20;;;29.70;32.10;;;;;;5050413;28;20434;-77
2022/07/18 09:20:08;;;;;;;2.63;2.40;;;29.70;32.10;;;;;;5049680;28;20443;-77
2022/07/18 09:22:40;;;;;;;3.03;2.23;;;29.80;31.50;;;;;;5050477;28;20438;-77
2022/07/18 09:25:09;;;;;;;3.03;2.13;;;29.80;31.50;;;;;;5043427;28;20531;-77
2022/07/18 09:27:38;;;;;;;6.60;2.73;;;29.90;31.20;;;;;;5038472;28;20417;-76
2022/07/18 09:30:21;;;;;;;3.10;2.90;;;30.00;30.60;;;;;;5030490;28;20428;-77
2022/07/18 09:32:51;;;;;;;4.53;2.83;;;30.00;30.70;;;;;;5030645;28;20434;-77
2022/07/18 09:35:22;;;;;;;6.67;3.40;;;30.10;30.40;;;;;;5046322;28;20450;-77
2022/07/18 09:37:55;;;;;;;5.40;3.53;;;30.20;30.20;;;;;;5050343;28;20521;-77
2022/07/18 09:40:24;;;;;;;4.33;3.67;;;30.10;30.00;;;;;;5047110;28;20492;-77
2022/07/18 09:42:53;;;;;;;7.73;3.70;;;30.20;29.70;;;;;;5032003;28;20429;-77
2022/07/18 09:45:23;;;;;;;5.93;3.70;;;30.20;29.60;;;;;;5034709;28;20441;-77
2022/07/18 09:47:52;;;;;;;7.13;3.37;;;30.30;29.80;;;;;;5049511;28;20431;-77
2022/07/18 09:50:23;;;;;;;3.80;3.40;;;30.30;29.80;;;;;;5030529;28;20447;-77
2022/07/18 09:52:57;;;;;;;6.00;4.70;;;30.30;30.10;;;;;;5038874;28;20452;-77
2022/07/18 09:55:47;;;;;;;5.10;3.97;;;30.30;30.20;;;;;;5036312;28;20435;-77
2022/07/18 09:58:16;;;;;;;7.73;3.93;;;30.40;30.10;;;;;;5040295;28;20589;-77
2022/07/18 10:00:44;;;;;;;4.37;3.73;;;30.50;30.00;;;;;;5049988;28;20443;-78
2022/07/18 10:03:12;;;;;;;4.17;3.40;;;30.50;29.70;;;;;;5050312;28;20868;-77
2022/07/18 10:05:43;;;;;;;4.77;3.47;;;30.50;29.70;;;;;;5049417;28;20478;-77
2022/07/18 10:08:12;;;;;;;5.53;4.10;;;30.50;30.60;;;;;;5043253;28;20436;-77
2022/07/18 10:10:40;;;;;;;7.50;4.13;;;30.50;30.10;;;;;;5033548;28;20461;-77
2022/07/18 10:13:08;;;;;;;6.60;4.13;;;30.60;29.80;;;;;;5030204;28;20442;-77
2022/07/18 10:15:37;;;;;;;6.90;4.30;;;30.60;29.80;;;;;;5029995;28;20482;-77
2022/07/18 10:18:06;;;;;;;4.20;3.80;;;30.60;29.80;;;;;;5029729;28;20435;-78
2022/07/18 10:20:36;;;;;;;4.77;4.13;;;30.60;30.00;;;;;;5034279;28;20439;-77
2022/07/18 10:23:11;;;;;;;5.03;4.50;;;30.60;29.90;;;;;;5048422;28;20454;-77
2022/07/18 10:25:39;;;;;;;7.63;4.70;;;30.70;29.70;;;;;;5034539;28;20496;-77
2022/07/18 10:28:10;;;;;;;5.07;4.57;;;30.70;29.40;;;;;;5029575;28;20417;-77
2022/07/18 10:30:49;;;;;;;4.50;4.10;;;30.80;29.60;;;;;;5030414;28;20460;-77
2022/07/18 10:33:39;;;;;;;5.03;4.33;;;30.80;29.90;;;;;;5034862;28;20467;-77
2022/07/18 10:36:09;;;;;;;4.80;4.33;;;30.90;30.20;;;;;;5036056;28;20425;-77
2022/07/18 10:39:02;;;;;;;6.93;4.53;;;31.00;30.10;;;;;;5039208;28;20445;-77
2022/07/18 10:41:30;;;;;;;6.30;4.50;;;31.00;29.60;;;;;;5045087;28;20569;-77
2022/07/18 10:43:59;;;;;;;7.33;4.60;;;31.10;29.70;;;;;;5040516;28;20463;-76
2022/07/18 10:46:27;;;;;;;7.30;4.23;;;31.20;29.80;;;;;;5044197;28;20446;-77
2022/07/18 10:48:56;;;;;;;6.07;4.53;;;31.30;29.70;;;;;;5042710;28;20436;-76
2022/07/18 10:51:34;;;;;;;9.83;3.93;;;31.40;29.90;;;;;;5041216;28;20533;-77
2022/07/18 10:54:10;;;;;;;5.63;4.50;;;31.40;29.80;;;;;;5045057;28;20465;-76
2022/07/18 10:57:09;;;;;;;6.57;4.70;;;31.60;29.40;;;;;;5053095;28;20437;-77
2022/07/18 10:59:39;;;;;;;5.63;4.80;;;31.70;29.70;;;;;;5043870;28;20474;-76
2022/07/18 11:02:08;;;;;;;8.60;5.20;;;31.80;29.30;;;;;;5049071;28;20441;-76
2022/07/18 11:04:38;;;;;;;8.87;5.10;;;31.80;28.80;;;;;;5052945;28;20470;-76
2022/07/18 11:07:09;;;;;;;5.07;4.60;;;31.90;28.60;;;;;;5042997;28;20542;-77
2022/07/18 11:09:43;;;;;;;4.90;4.50;;;31.90;28.90;;;;;;5050355;28;20517;-76
2022/07/18 11:12:18;;;;;;;5.63;4.87;;;31.90;29.00;;;;;;5052452;28;20438;-77
2022/07/18 11:15:04;;;;;;;7.60;4.93;;;32.00;28.80;;;;;;5035017;28;20794;-77
2022/07/18 11:18:00;;;;;;;4.90;4.50;;;32.10;28.80;;;;;;5033647;28;20406;-77
2022/07/18 11:20:35;;;;;;;5.23;4.73;;;32.20;29.10;;;;;;5033102;28;20566;-77
2022/07/18 11:23:03;;;;;;;5.63;4.77;;;32.30;28.50;;;;;;5044256;28;20502;-77
2022/07/18 11:25:32;;;;;;;4.83;4.33;;;32.30;28.60;;;;;;5049795;28;20827;-77
2022/07/18 11:28:20;;;;;;;7.27;4.80;;;32.40;28.60;;;;;;5053137;28;20445;-77
2022/07/18 11:31:02;;;;;;;7.80;5.03;;;32.50;28.00;;;;;;5040291;28;20442;-77
2022/07/18 11:33:33;;;;;;;6.83;5.50;;;32.60;27.50;;;;;;5035495;28;20434;-77
2022/07/18 11:36:05;;;;;;;8.73;5.47;;;32.80;27.10;;;;;;5053039;28;20873;-77
2022/07/18 11:38:34;;;;;;;5.70;5.20;;;32.80;27.00;;;;;;5051245;28;20971;-77
2022/07/18 11:41:03;;;;;;;5.90;5.37;;;32.90;27.20;;;;;;5033249;28;20501;-77
2022/07/18 11:43:31;;;;;;;6.27;5.70;;;32.90;27.10;;;;;;5033839;28;20455;-78
2022/07/18 11:46:03;;;;;;;7.07;6.00;;;33.00;27.10;;;;;;5049159;28;20541;-78
2022/07/18 11:48:31;;;;;;;13.30;5.60;;;33.10;27.40;;;;;;5039482;28;20450;-78
2022/07/18 11:50:59;;;;;;;5.97;5.37;;;33.10;27.20;;;;;;5038565;28;20806;-78
2022/07/18 11:53:27;;;;;;;7.87;5.70;;;33.20;27.30;;;;;;5039155;28;20520;-78
2022/07/18 11:55:55;;;;;;;11.53;5.20;;;33.20;27.40;;;;;;5039288;28;20451;-78
2022/07/18 11:58:24;;;;;;;7.37;5.03;;;33.30;27.30;;;;;;5053302;28;20451;-79
2022/07/18 12:00:52;;;;;;;6.00;5.50;;;33.30;26.90;;;;;;5054356;28;20565;-79
2022/07/18 12:03:22;;;;;;;6.10;5.40;;;33.40;26.70;;;;;;5055055;28;20526;-79
2022/07/18 12:05:52;;;;;;;12.30;5.40;;;33.50;26.50;;;;;;5058068;28;20522;-79
2022/07/18 12:08:30;;;;;;;5.47;4.93;;;33.60;26.30;;;;;;5056970;28;20443;-79
2022/07/18 12:11:14;;;;;;;6.07;5.47;;;33.60;26.50;;;;;;5058870;28;20469;-80
2022/07/18 12:13:51;;;;;;;6.23;5.60;;;33.70;26.30;;;;;;5059377;28;20545;-79
2022/07/18 12:16:24;;;;;;;6.10;5.50;;;33.70;26.40;;;;;;5056933;28;20450;-79
2022/07/18 12:18:52;;;;;;;5.83;5.07;;;33.70;26.60;;;;;;5058492;28;20453;-79
2022/07/18 12:21:20;;;;;;;5.27;4.77;;;33.80;26.70;;;;;;5052308;28;20471;-79
2022/07/18 12:23:48;;;;;;;5.90;4.90;;;33.80;26.70;;;;;;5059265;28;20459;-79
2022/07/18 12:26:29;;;;;;;5.40;4.90;;;33.80;26.70;;;;;;5056049;28;20451;-79
2022/07/18 12:29:15;;;;;;;5.40;4.90;;;33.90;27.50;;;;;;5053349;28;20484;-79
2022/07/18 12:31:43;;;;;;;5.53;4.93;;;34.00;27.00;;;;;;5037574;28;20474;-79
2022/07/18 12:34:12;;;;;;;5.90;4.80;;;34.00;27.10;;;;;;5054457;28;20630;-80
2022/07/18 12:36:53;;;;;;;5.40;4.67;;;34.10;27.20;;;;;;5050732;28;20436;-79
2022/07/18 12:39:28;;;;;;;5.07;4.53;;;34.20;27.50;;;;;;5039474;28;20442;-79
2022/07/18 12:41:56;;;;;;;5.93;4.67;;;34.30;27.20;;;;;;5057627;28;20442;-79
2022/07/18 12:44:25;;;;;;;4.73;4.27;;;34.30;27.50;;;;;;5046194;28;20501;-79
2022/07/18 12:46:53;;;;;;;4.50;4.10;;;34.30;27.30;;;;;;5057107;28;20446;-80
2022/07/18 12:49:21;;;;;;;6.20;4.33;;;34.20;27.40;;;;;;5052802;28;20469;-80
2022/07/18 12:51:50;;;;;;;4.90;4.50;;;34.20;27.40;;;;;;5053885;28;20510;-79
2022/07/18 12:54:18;;;;;;;5.30;4.80;;;34.20;27.60;;;;;;5041975;28;20478;-80
2022/07/18 12:56:46;;;;;;;4.83;4.30;;;34.30;27.80;;;;;;5058784;28;20435;-79